sensor_id;sensor_type;location;lat;lon;timestamp;temperature;humidity
10441;DHT22;5268;49.346;9.522;2022-08-03T03:20:16;18.00;84.20
10441;DHT22;5268;49.346;9.522;2022-08-03T03:25:19;18.00;90.10
10441;DHT22;5268;49.346;9.522;2022-08-03T03:30:22;17.90;86.70
10441;DHT22;5268;49.346;9.522;2022-08-03T03:35:26;18.00;87.10
10441;DHT22;5268;49.346;9.522;2022-08-03T03:40:28;18.00;87.80
10441;DHT22;5268;49.346;9.522;2022-08-03T03:45:30;17.90;87.70
10441;DHT22;5268;49.346;9.522;2022-08-03T03:50:35;17.80;85.00
10441;DHT22;5268;49.346;9.522;2022-08-03T03:55:40;17.70;83.80
10441;DHT22;5268;49.346;9.522;2022-08-03T04:00:42;17.70;83.50
10441;DHT22;5268;49.346;9.522;2022-08-03T04:05:46;17.70;83.20
10441;DHT22;5268;49.346;9.522;2022-08-03T04:11:10;17.80;83.60
10441;DHT22;5268;49.346;9.522;2022-08-03T04:16:17;17.80;90.70
10441;DHT22;5268;49.346;9.522;2022-08-03T04:21:20;17.70;87.70
10441;DHT22;5268;49.346;9.522;2022-08-03T04:26:26;17.70;87.50
10441;DHT22;5268;49.346;9.522;2022-08-03T04:31:30;17.70;84.90
10441;DHT22;5268;49.346;9.522;2022-08-03T04:36:37;17.70;86.70
10441;DHT22;5268;49.346;9.522;2022-08-03T04:41:42;17.70;88.10
10441;DHT22;5268;49.346;9.522;2022-08-03T04:46:46;17.70;87.50
10441;DHT22;5268;49.346;9.522;2022-08-03T04:51:50;17.70;91.70
10441;DHT22;5268;49.346;9.522;2022-08-03T04:56:52;17.70;87.80
10441;DHT22;5268;49.346;9.522;2022-08-03T05:01:54;17.60;94.00
10441;DHT22;5268;49.346;9.522;2022-08-03T05:06:57;17.60;90.60
10441;DHT22;5268;49.346;9.522;2022-08-03T05:11:59;17.60;94.70
10441;DHT22;5268;49.346;9.522;2022-08-03T05:17:01;17.60;91.90
10441;DHT22;5268;49.346;9.522;2022-08-03T05:22:05;17.80;90.50
10441;DHT22;5268;49.346;9.522;2022-08-03T05:27:07;17.90;95.90
10441;DHT22;5268;49.346;9.522;2022-08-03T05:32:09;18.30;92.90
10441;DHT22;5268;49.346;9.522;2022-08-03T05:37:12;18.80;93.70
10441;DHT22;5268;49.346;9.522;2022-08-03T05:42:15;18.90;93.90
10441;DHT22;5268;49.346;9.522;2022-08-03T05:47:17;18.80;93.60
10441;DHT22;5268;49.346;9.522;2022-08-03T05:52:20;18.70;93.90
10441;DHT22;5268;49.346;9.522;2022-08-03T05:57:22;18.70;95.10
10441;DHT22;5268;49.346;9.522;2022-08-03T06:02:24;18.80;95.60
10441;DHT22;5268;49.346;9.522;2022-08-03T06:07:28;19.00;92.20
10441;DHT22;5268;49.346;9.522;2022-08-03T06:12:30;19.30;92.10
10441;DHT22;5268;49.346;9.522;2022-08-03T06:17:44;19.70;92.10
10441;DHT22;5268;49.346;9.522;2022-08-03T06:22:48;20.10;92.00
10441;DHT22;5268;49.346;9.522;2022-08-03T06:27:50;20.50;91.00
10441;DHT22;5268;49.346;9.522;2022-08-03T06:32:52;21.00;91.20
10441;DHT22;5268;49.346;9.522;2022-08-03T06:37:55;21.40;90.60
10441;DHT22;5268;49.346;9.522;2022-08-03T06:42:59;21.80;90.30
10441;DHT22;5268;49.346;9.522;2022-08-03T06:48:04;22.20;90.30
10441;DHT22;5268;49.346;9.522;2022-08-03T06:53:08;22.60;90.20
10441;DHT22;5268;49.346;9.522;2022-08-03T06:58:09;22.90;91.00
10441;DHT22;5268;49.346;9.522;2022-08-03T07:03:11;23.30;91.30
10441;DHT22;5268;49.346;9.522;2022-08-03T07:08:16;23.80;90.70
10441;DHT22;5268;49.346;9.522;2022-08-03T07:13:18;24.30;89.90
10441;DHT22;5268;49.346;9.522;2022-08-03T07:18:20;24.60;89.60
10441;DHT22;5268;49.346;9.522;2022-08-03T07:23:24;25.00;88.30
10441;DHT22;5268;49.346;9.522;2022-08-03T07:28:26;25.40;88.50
10441;DHT22;5268;49.346;9.522;2022-08-03T07:33:28;25.70;88.50
10441;DHT22;5268;49.346;9.522;2022-08-03T07:38:33;26.20;88.80
10441;DHT22;5268;49.346;9.522;2022-08-03T07:43:35;26.60;88.00
10441;DHT22;5268;49.346;9.522;2022-08-03T07:48:37;27.20;87.70
10441;DHT22;5268;49.346;9.522;2022-08-03T07:53:41;27.70;86.90
10441;DHT22;5268;49.346;9.522;2022-08-03T07:58:43;28.30;86.80
10441;DHT22;5268;49.346;9.522;2022-08-03T08:03:46;28.80;86.70
10441;DHT22;5268;49.346;9.522;2022-08-03T08:08:49;29.40;86.20
10441;DHT22;5268;49.346;9.522;2022-08-03T08:13:51;29.90;85.60
10441;DHT22;5268;49.346;9.522;2022-08-03T08:18:53;30.40;83.50
10441;DHT22;5268;49.346;9.522;2022-08-03T08:23:57;30.80;83.90
10441;DHT22;5268;49.346;9.522;2022-08-03T08:28:59;31.20;81.20
10441;DHT22;5268;49.346;9.522;2022-08-03T08:34:01;31.60;81.50
10441;DHT22;5268;49.346;9.522;2022-08-03T08:39:06;31.90;82.80
10441;DHT22;5268;49.346;9.522;2022-08-03T08:44:08;32.20;81.90
10441;DHT22;5268;49.346;9.522;2022-08-03T08:49:11;32.40;80.80
10441;DHT22;5268;49.346;9.522;2022-08-03T08:54:20;32.60;80.30
10441;DHT22;5268;49.346;9.522;2022-08-03T08:59:23;32.80;74.70
10441;DHT22;5268;49.346;9.522;2022-08-03T09:04:25;32.70;72.80
10441;DHT22;5268;49.346;9.522;2022-08-03T09:09:30;32.80;77.10
10441;DHT22;5268;49.346;9.522;2022-08-03T09:14:32;32.90;74.70
10441;DHT22;5268;49.346;9.522;2022-08-03T09:19:34;33.10;68.20
10441;DHT22;5268;49.346;9.522;2022-08-03T09:24:52;33.20;75.90
10441;DHT22;5268;49.346;9.522;2022-08-03T09:29:57;33.50;76.90
10441;DHT22;5268;49.346;9.522;2022-08-03T09:35:03;33.80;77.30
10441;DHT22;5268;49.346;9.522;2022-08-03T09:40:08;34.10;76.40
10441;DHT22;5268;49.346;9.522;2022-08-03T09:45:25;34.30;74.30
10441;DHT22;5268;49.346;9.522;2022-08-03T09:50:27;34.40;73.40
10441;DHT22;5268;49.346;9.522;2022-08-03T09:55:30;34.30;74.60
10441;DHT22;5268;49.346;9.522;2022-08-03T10:00:32;34.30;73.10
10441;DHT22;5268;49.346;9.522;2022-08-03T10:05:53;34.50;73.50
10441;DHT22;5268;49.346;9.522;2022-08-03T10:10:57;34.70;72.30
10441;DHT22;5268;49.346;9.522;2022-08-03T10:16:00;34.60;72.60
10441;DHT22;5268;49.346;9.522;2022-08-03T10:21:07;34.30;69.90
10441;DHT22;5268;49.346;9.522;2022-08-03T10:26:14;34.40;72.50
10441;DHT22;5268;49.346;9.522;2022-08-03T10:31:17;34.60;74.10
10441;DHT22;5268;49.346;9.522;2022-08-03T10:36:22;34.70;66.60
10441;DHT22;5268;49.346;9.522;2022-08-03T10:41:31;34.70;68.90
10441;DHT22;5268;49.346;9.522;2022-08-03T10:46:34;34.80;70.60
10441;DHT22;5268;49.346;9.522;2022-08-03T10:51:37;35.00;69.70
10441;DHT22;5268;49.346;9.522;2022-08-03T10:56:41;35.40;71.10
10441;DHT22;5268;49.346;9.522;2022-08-03T11:02:00;35.60;70.70
10441;DHT22;5268;49.346;9.522;2022-08-03T11:07:19;35.80;69.10
10441;DHT22;5268;49.346;9.522;2022-08-03T11:12:25;36.00;66.70
10441;DHT22;5268;49.346;9.522;2022-08-03T11:17:27;36.00;67.50
10441;DHT22;5268;49.346;9.522;2022-08-03T11:22:47;35.70;60.10
10441;DHT22;5268;49.346;9.522;2022-08-03T11:28:27;35.70;65.00
10441;DHT22;5268;49.346;9.522;2022-08-03T11:33:30;35.70;61.20
10441;DHT22;5268;49.346;9.522;2022-08-03T11:38:32;35.50;63.90
10441;DHT22;5268;49.346;9.522;2022-08-03T11:43:45;35.00;60.10
10441;DHT22;5268;49.346;9.522;2022-08-03T11:48:48;35.00;63.00
10441;DHT22;5268;49.346;9.522;2022-08-03T11:53:57;35.00;62.20
10441;DHT22;5268;49.346;9.522;2022-08-03T11:59:01;35.40;64.40
10441;DHT22;5268;49.346;9.522;2022-08-03T12:04:04;35.70;62.10
10441;DHT22;5268;49.346;9.522;2022-08-03T12:09:14;35.90;63.70
10441;DHT22;5268;49.346;9.522;2022-08-03T12:14:18;34.80;53.60
10441;DHT22;5268;49.346;9.522;2022-08-03T12:19:20;34.90;57.40
10441;DHT22;5268;49.346;9.522;2022-08-03T12:24:22;35.20;58.20
10441;DHT22;5268;49.346;9.522;2022-08-03T12:29:25;34.80;54.80
10441;DHT22;5268;49.346;9.522;2022-08-03T12:34:45;35.10;55.40
10441;DHT22;5268;49.346;9.522;2022-08-03T12:39:51;35.50;62.00
10441;DHT22;5268;49.346;9.522;2022-08-03T12:44:55;35.90;58.90
10441;DHT22;5268;49.346;9.522;2022-08-03T12:49:57;36.20;61.00
10441;DHT22;5268;49.346;9.522;2022-08-03T12:54:59;36.40;62.10
10441;DHT22;5268;49.346;9.522;2022-08-03T13:00:11;36.40;58.00
10441;DHT22;5268;49.346;9.522;2022-08-03T13:05:14;36.40;59.50
10441;DHT22;5268;49.346;9.522;2022-08-03T13:10:26;36.20;53.50
10441;DHT22;5268;49.346;9.522;2022-08-03T13:15:30;36.30;60.10
10441;DHT22;5268;49.346;9.522;2022-08-03T13:20:32;36.40;59.40
10441;DHT22;5268;49.346;9.522;2022-08-03T13:25:34;36.20;56.20
10441;DHT22;5268;49.346;9.522;2022-08-03T13:30:37;36.30;60.30
10441;DHT22;5268;49.346;9.522;2022-08-03T13:35:39;35.60;52.60
10441;DHT22;5268;49.346;9.522;2022-08-03T13:40:41;35.30;54.60
10441;DHT22;5268;49.346;9.522;2022-08-03T13:45:45;35.40;58.20
10441;DHT22;5268;49.346;9.522;2022-08-03T13:50:46;35.30;54.60
10441;DHT22;5268;49.346;9.522;2022-08-03T13:55:48;35.30;55.80
10441;DHT22;5268;49.346;9.522;2022-08-03T14:00:52;35.40;56.50
10441;DHT22;5268;49.346;9.522;2022-08-03T14:05:54;35.60;58.70
10441;DHT22;5268;49.346;9.522;2022-08-03T14:10:55;35.90;58.40
10441;DHT22;5268;49.346;9.522;2022-08-03T14:16:00;36.00;56.00
10441;DHT22;5268;49.346;9.522;2022-08-03T14:21:03;36.00;58.80
10441;DHT22;5268;49.346;9.522;2022-08-03T14:26:06;36.00;58.70
10441;DHT22;5268;49.346;9.522;2022-08-03T14:31:10;36.00;58.60
10441;DHT22;5268;49.346;9.522;2022-08-03T14:36:12;36.20;57.60
10441;DHT22;5268;49.346;9.522;2022-08-03T14:41:14;36.20;56.80
10441;DHT22;5268;49.346;9.522;2022-08-03T14:46:17;36.20;58.40
10441;DHT22;5268;49.346;9.522;2022-08-03T14:51:19;36.10;57.60
10441;DHT22;5268;49.346;9.522;2022-08-03T14:56:21;35.80;57.50
10441;DHT22;5268;49.346;9.522;2022-08-03T15:01:24;35.80;55.30
10441;DHT22;5268;49.346;9.522;2022-08-03T15:06:26;35.50;52.20
10441;DHT22;5268;49.346;9.522;2022-08-03T15:11:28;35.30;52.70
10441;DHT22;5268;49.346;9.522;2022-08-03T15:16:31;35.30;57.70
10441;DHT22;5268;49.346;9.522;2022-08-03T15:21:33;35.10;54.10
10441;DHT22;5268;49.346;9.522;2022-08-03T15:26:35;35.10;56.30
10441;DHT22;5268;49.346;9.522;2022-08-03T15:31:38;35.20;57.10
10441;DHT22;5268;49.346;9.522;2022-08-03T15:36:40;35.30;57.70
10441;DHT22;5268;49.346;9.522;2022-08-03T15:41:42;35.30;54.70
10441;DHT22;5268;49.346;9.522;2022-08-03T15:46:46;35.40;57.40
10441;DHT22;5268;49.346;9.522;2022-08-03T15:51:48;35.50;58.10
10441;DHT22;5268;49.346;9.522;2022-08-03T15:56:50;35.40;56.70
10441;DHT22;5268;49.346;9.522;2022-08-03T16:01:53;35.30;56.40
10441;DHT22;5268;49.346;9.522;2022-08-03T16:06:56;35.20;56.70
10441;DHT22;5268;49.346;9.522;2022-08-03T16:11:58;35.00;52.20
10441;DHT22;5268;49.346;9.522;2022-08-03T16:17:02;34.80;54.20
10441;DHT22;5268;49.346;9.522;2022-08-03T16:22:04;34.50;53.80
10441;DHT22;5268;49.346;9.522;2022-08-03T16:27:06;34.60;56.80
10441;DHT22;5268;49.346;9.522;2022-08-03T16:32:09;34.70;57.50
10441;DHT22;5268;49.346;9.522;2022-08-03T16:37:11;34.80;57.10
10441;DHT22;5268;49.346;9.522;2022-08-03T16:42:13;34.80;55.80
10441;DHT22;5268;49.346;9.522;2022-08-03T16:47:16;34.60;52.20
10441;DHT22;5268;49.346;9.522;2022-08-03T16:52:18;34.50;53.40
10441;DHT22;5268;49.346;9.522;2022-08-03T16:57:20;34.50;56.30
10441;DHT22;5268;49.346;9.522;2022-08-03T17:02:26;34.50;57.20
10441;DHT22;5268;49.346;9.522;2022-08-03T17:07:28;34.60;58.00
10441;DHT22;5268;49.346;9.522;2022-08-03T17:12:30;34.60;57.00
10441;DHT22;5268;49.346;9.522;2022-08-03T17:17:34;34.60;57.70
10441;DHT22;5268;49.346;9.522;2022-08-03T17:22:50;34.60;57.70
10441;DHT22;5268;49.346;9.522;2022-08-03T17:27:55;34.60;57.60
10441;DHT22;5268;49.346;9.522;2022-08-03T17:32:59;34.60;57.80
10441;DHT22;5268;49.346;9.522;2022-08-03T17:38:01;34.50;58.10
10441;DHT22;5268;49.346;9.522;2022-08-03T17:43:03;34.50;58.30
10441;DHT22;5268;49.346;9.522;2022-08-03T17:48:07;34.50;58.10
10441;DHT22;5268;49.346;9.522;2022-08-03T17:53:11;34.50;58.30
10441;DHT22;5268;49.346;9.522;2022-08-03T17:58:21;34.40;58.30
10441;DHT22;5268;49.346;9.522;2022-08-03T18:03:34;34.40;58.50
10441;DHT22;5268;49.346;9.522;2022-08-03T18:08:42;34.40;58.60
10441;DHT22;5268;49.346;9.522;2022-08-03T18:13:53;34.30;58.70
10441;DHT22;5268;49.346;9.522;2022-08-03T18:18:59;34.20;58.50
10441;DHT22;5268;49.346;9.522;2022-08-03T18:24:02;34.10;58.40
10441;DHT22;5268;49.346;9.522;2022-08-03T18:29:05;33.90;58.60
10441;DHT22;5268;49.346;9.522;2022-08-03T18:34:13;33.70;58.40
10441;DHT22;5268;49.346;9.522;2022-08-03T18:39:17;33.40;58.10
10441;DHT22;5268;49.346;9.522;2022-08-03T18:44:20;33.10;58.60
10441;DHT22;5268;49.346;9.522;2022-08-03T18:49:30;32.80;58.40
10441;DHT22;5268;49.346;9.522;2022-08-03T18:54:42;32.60;58.80
10441;DHT22;5268;49.346;9.522;2022-08-03T18:59:50;32.30;58.90
10441;DHT22;5268;49.346;9.522;2022-08-03T19:04:59;32.10;59.30
10441;DHT22;5268;49.346;9.522;2022-08-03T19:10:05;31.90;59.40
10441;DHT22;5268;49.346;9.522;2022-08-03T19:15:09;31.60;59.40
10441;DHT22;5268;49.346;9.522;2022-08-03T19:20:13;31.40;59.60
10441;DHT22;5268;49.346;9.522;2022-08-03T19:25:15;31.20;60.00
10441;DHT22;5268;49.346;9.522;2022-08-03T19:30:18;31.00;60.40
10441;DHT22;5268;49.346;9.522;2022-08-03T19:35:41;30.80;60.60
10441;DHT22;5268;49.346;9.522;2022-08-03T19:40:46;30.50;60.50
10441;DHT22;5268;49.346;9.522;2022-08-03T19:45:49;30.30;59.90
10441;DHT22;5268;49.346;9.522;2022-08-03T19:50:56;30.20;60.60
10441;DHT22;5268;49.346;9.522;2022-08-03T19:55:58;29.90;61.80
10441;DHT22;5268;49.346;9.522;2022-08-03T20:01:04;29.80;61.90
10441;DHT22;5268;49.346;9.522;2022-08-03T20:06:08;29.60;62.10
10441;DHT22;5268;49.346;9.522;2022-08-03T20:11:11;29.40;62.10
10441;DHT22;5268;49.346;9.522;2022-08-03T20:16:13;29.20;62.30
10441;DHT22;5268;49.346;9.522;2022-08-03T20:21:17;29.10;62.10
10441;DHT22;5268;49.346;9.522;2022-08-03T20:26:23;28.80;62.30
10441;DHT22;5268;49.346;9.522;2022-08-03T20:31:28;28.60;63.00
10441;DHT22;5268;49.346;9.522;2022-08-03T20:36:31;28.30;65.40
10441;DHT22;5268;49.346;9.522;2022-08-03T20:41:33;28.20;64.60
10441;DHT22;5268;49.346;9.522;2022-08-03T20:46:36;28.10;64.30
10441;DHT22;5268;49.346;9.522;2022-08-03T20:51:39;27.90;63.90
10441;DHT22;5268;49.346;9.522;2022-08-03T20:56:42;27.80;64.50
10441;DHT22;5268;49.346;9.522;2022-08-03T21:01:44;27.60;67.40
10441;DHT22;5268;49.346;9.522;2022-08-03T21:06:51;27.40;66.50
10441;DHT22;5268;49.346;9.522;2022-08-03T21:12:00;27.20;66.20
10441;DHT22;5268;49.346;9.522;2022-08-03T21:17:04;27.10;65.80
10441;DHT22;5268;49.346;9.522;2022-08-03T21:22:07;27.00;66.00
10441;DHT22;5268;49.346;9.522;2022-08-03T21:27:10;26.90;66.90
